Portada
METAR-TAF:

METAR-TAF

Aeroports :

Derby, Austràlia

latitud: 17-34-53S, longitud: 123-49-42E, altitud: 91 m

Observació

L'informe es va fer fa 34 minuts, a les 23:30 UTC
Vent 10 kt del Oest/Nord-Oest
Temperatura 30°C
Humitat 75%
Pressió 1005 hPa
Visibilitat 10 km o més
Cel ennuvolat a una alçada de 1700 ft

METAR: YCIN 122330Z AUTO 30010KT 9999 // BKN017 30/25 Q1005 RF00.0/000.0

Hora: 08:04 (00:04 UTC)

Pronòstic

L'informe es va fer fa 6 hores i 2 minuts, a les 18:02 UTC
Pronòstic vàlid del 12 a les 18 UTC al 13 a les 08 UTC
Vent 10 kt del Oest/Nord-Oest
Visibilitat 10 km o més
Cel ennuvolat a una alçada de 1600 ft
A partir de les 13 a les 0000 UTC
Vent 10 kt del Oest
Visibilitat 10 km o més
Núvols disperses a una alçada de 2000 ft
A partir de les 13 a les 0400 UTC
Vent 10 kt del Nord-Oest
Visibilitat 10 km o més
sense núvols per sota de 1500 mi sense presència de cumulonimbus.

TAF: YCIN 121802Z 1218/1308 29010KT 9999 BKN016 FM130000 28010KT 9999 SCT020 FM130400 32010KT CAVOK

Observacions i pronòstics meteorològics de més de 4000 aeroports (METAR i TAF).

Les estacions disponibles són els punts grocs i vermells al mapa.

Posi el ratolí al punt desitjat per veure el nom de l'estació.

Feu clic per veure les observacions i els pronòstics meteorològics.

Per canviar el mapa: feu clic els botons verds amb una creu de color negre per apropar; al botó verd amb un guió per allunyar la imatge; o en les fletxes verdes per a mapes adjacents.


METAR-TAF: